Time;durP1;ratioP1;P1;durP2;ratioP2;P2;SDS_P1;SDS_P2;PMS_P1;PMS_P2;Temp;Humidity;BMP_temperature;BMP_pressure;BME280_temperature;BME280_humidity;BME280_pressure;Samples;Min_cycle;Max_cycle;Signal;HPM_P1;HPM_P2
2024/02/12 00:02:18;;;;;;;;;;;;;;;-144.99;100.00;67352.69;5057695;28;19928;-82
2024/02/12 00:04:43;;;;;;;;;;;;;;;-144.99;100.00;67352.69;5056145;28;19917;-81
2024/02/12 00:07:09;;;;;;;;;;;;;;;-144.99;100.00;67352.69;5055872;28;19913;-81
2024/02/12 00:09:34;;;;;;;;;;;;;;;-144.99;100.00;67352.69;5057495;28;19913;-81
2024/02/12 00:12:00;;;;;;;;;;;;;;;-144.99;100.00;67352.69;5057248;28;19987;-82
2024/02/12 00:14:26;;;;;;;;;;;;;;;-144.99;100.00;67352.69;5052295;28;20323;-82
2024/02/12 00:16:52;;;;;;;;;;;;;;;-144.99;100.00;67352.69;5055508;28;19923;-82
2024/02/12 00:19:17;;;;;;;;;;;;;;;-144.99;100.00;67352.69;5057601;28;20371;-82
2024/02/12 00:21:45;;;;;;;;;;;;;;;-144.99;100.00;67352.69;5055845;28;19923;-81
2024/02/12 00:24:10;;;;;;;;;;;;;;;-144.99;100.00;67352.69;5055214;28;20007;-82
2024/02/12 00:26:39;;;;;;;;;;;;;;;-144.99;100.00;67352.69;5055049;28;19924;-82
2024/02/12 00:29:05;;;;;;;;;;;;;;;-144.99;100.00;67352.69;5056124;28;19924;-82
2024/02/12 00:31:31;;;;;;;;;;;;;;;-144.99;100.00;67352.69;5057376;28;19913;-81
2024/02/12 00:33:56;;;;;;;;;;;;;;;-144.99;100.00;67352.69;5056085;28;20333;-82
2024/02/12 00:36:21;;;;;;;;;;;;;;;-144.99;100.00;67352.69;5056606;28;20582;-81
2024/02/12 00:38:47;;;;;;;;;;;;;;;-144.99;100.00;67352.69;5055970;28;19908;-81
2024/02/12 00:41:13;;;;;;;;;;;;;;;-144.99;100.00;67352.69;5055594;28;19964;-82
2024/02/12 00:43:40;;;;;;;;;;;;;;;-144.99;100.00;67352.69;5055896;28;19920;-82
2024/02/12 00:46:05;;;;;;;;;;;;;;;-144.99;100.00;67352.69;5055083;28;19919;-82
2024/02/12 00:48:31;;;;;;;;;;;;;;;-144.99;100.00;67352.69;5055758;28;19916;-82
2024/02/12 00:50:56;;;;;;;;;;;;;;;-144.99;100.00;67352.69;5056095;28;20296;-82
2024/02/12 00:53:22;;;;;;;;;;;;;;;-144.99;100.00;67352.69;5056228;28;19939;-80
2024/02/12 00:55:49;;;;;;;;;;;;;;;-144.99;100.00;67352.69;5054965;28;19913;-82
2024/02/12 00:58:14;;;;;;;;;;;;;;;-144.99;100.00;67352.69;5055797;28;20386;-82
2024/02/12 01:00:39;;;;;;;;;;;;;;;-144.99;100.00;67352.69;5056781;28;19920;-81
2024/02/12 01:03:05;;;;;;;;;;;;;;;-144.99;100.00;67352.69;5057113;28;20375;-82
2024/02/12 01:05:31;;;;;;;;;;;;;;;-144.99;100.00;67352.69;5054653;28;19913;-82
2024/02/12 01:07:56;;;;;;;;;;;;;;;-144.99;100.00;67352.69;5055475;28;19916;-82
2024/02/12 01:10:21;;;;;;;;;;;;;;;-144.99;100.00;67352.69;5054795;28;19916;-82
2024/02/12 01:12:47;;;;;;;;;;;;;;;-144.99;100.00;67352.69;5055507;28;19931;-82
2024/02/12 01:15:13;;;;;;;;;;;;;;;-144.99;100.00;67352.69;5056659;28;19913;-82
2024/02/12 01:17:40;;;;;;;;;;;;;;;-144.99;100.00;67352.69;5055831;28;20287;-82
2024/02/12 01:20:11;;;;;;;;;;;;;;;-144.99;100.00;67352.69;5054609;28;19998;-81
2024/02/12 01:22:38;;;;;;;;;;;;;;;-144.99;100.00;67352.69;5054728;28;19924;-81
2024/02/12 01:25:04;;;;;;;;;;;;;;;-144.99;100.00;67352.69;5054020;28;19913;-81
2024/02/12 01:27:29;;;;;;;;;;;;;;;-144.99;100.00;67352.69;5054362;28;19916;-82
2024/02/12 01:29:55;;;;;;;;;;;;;;;-144.99;100.00;67352.69;5054831;28;19917;-81
2024/02/12 01:32:22;;;;;;;;;;;;;;;-144.99;100.00;67352.69;5053786;28;19917;-81
2024/02/12 01:34:47;;;;;;;;;;;;;;;-144.99;100.00;67352.69;5052734;28;19913;-81
2024/02/12 01:37:12;;;;;;;;;;;;;;;-144.99;100.00;67352.69;5055000;28;19913;-82
2024/02/12 01:39:38;;;;;;;;;;;;;;;-144.99;100.00;67352.69;5055648;28;19912;-81
2024/02/12 01:42:12;;;;;;;;;;;;;;;-144.99;100.00;67352.69;5055104;28;19939;-82
2024/02/12 01:44:46;;;;;;;;;;;;;;;-144.99;100.00;67352.69;5053672;28;20000;-81
2024/02/12 01:47:11;;;;;;;;;;;;;;;-144.99;100.00;67352.69;5052911;28;19920;-80
2024/02/12 01:49:36;;;;;;;;;;;;;;;-144.99;100.00;67352.69;5053309;28;19913;-81
2024/02/12 01:52:01;;;;;;;;;;;;;;;-144.99;100.00;67352.69;5051714;28;19917;-82
2024/02/12 01:54:27;;;;;;;;;;;;;;;-144.99;100.00;67352.69;5053341;28;19913;-81
2024/02/12 01:56:52;;;;;;;;;;;;;;;-144.99;100.00;67352.69;5051399;28;19919;-82
2024/02/12 01:59:18;;;;;;;;;;;;;;;-144.99;100.00;67352.69;5052719;28;19913;-80
2024/02/12 02:01:47;;;;;;;;;;;;;;;-144.99;100.00;67352.69;5052040;28;19924;-81
2024/02/12 02:04:13;;;;;;;;;;;;;;;-144.99;100.00;67352.69;5052916;28;20306;-81
2024/02/12 02:06:38;;;;;;;;;;;;;;;-144.99;100.00;67352.69;5051862;28;19912;-82
2024/02/12 02:09:03;;;;;;;;;;;;;;;-144.99;100.00;67352.69;5054400;28;19913;-82
2024/02/12 02:11:29;;;;;;;;;;;;;;;-144.99;100.00;67352.69;5053804;28;19928;-81
2024/02/12 02:13:54;;;;;;;;;;;;;;;-144.99;100.00;67352.69;5054319;28;19917;-81
2024/02/12 02:16:19;;;;;;;;;;;;;;;-144.99;100.00;67352.69;5052365;28;20140;-82
2024/02/12 02:18:45;;;;;;;;;;;;;;;-144.99;100.00;67352.69;5053332;28;19920;-80
2024/02/12 02:21:12;;;;;;;;;;;;;;;-144.99;100.00;67352.69;5054134;28;19921;-81
2024/02/12 02:23:41;;;;;;;;;;;;;;;-144.99;100.00;67352.69;5053276;28;19913;-82
2024/02/12 02:26:06;;;;;;;;;;;;;;;-144.99;100.00;67352.69;5052345;28;19966;-82
2024/02/12 02:28:31;;;;;;;;;;;;;;;-144.99;100.00;67352.69;5054717;28;19920;-81
2024/02/12 02:30:57;;;;;;;;;;;;;;;-144.99;100.00;67352.69;5052414;28;19913;-81
2024/02/12 02:33:22;;;;;;;;;;;;;;;-144.99;100.00;67352.69;5052540;28;20023;-81
2024/02/12 02:35:48;;;;;;;;;;;;;;;-144.99;100.00;67352.69;5051745;28;19956;-81
2024/02/12 02:38:13;;;;;;;;;;;;;;;-144.99;100.00;67352.69;5054085;28;19959;-81
2024/02/12 02:40:39;;;;;;;;;;;;;;;-144.99;100.00;67352.69;5053836;28;20304;-82
2024/02/12 02:43:04;;;;;;;;;;;;;;;-144.99;100.00;67352.69;5054506;28;19924;-82
2024/02/12 02:45:30;;;;;;;;;;;;;;;-144.99;100.00;67352.69;5053119;28;19920;-82
2024/02/12 02:47:56;;;;;;;;;;;;;;;-144.99;100.00;67352.69;5053978;28;20394;-82
2024/02/12 02:50:22;;;;;;;;;;;;;;;-144.99;100.00;67352.69;5052774;28;19943;-81
2024/02/12 02:52:48;;;;;;;;;;;;;;;-144.99;100.00;67352.69;5053846;28;19939;-81
2024/02/12 02:55:16;;;;;;;;;;;;;;;-144.99;100.00;67352.69;5052794;28;20008;-82
2024/02/12 02:57:44;;;;;;;;;;;;;;;-144.99;100.00;67352.69;5053343;28;19919;-82
2024/02/12 03:00:09;;;;;;;;;;;;;;;-144.99;100.00;67352.69;5053963;28;19995;-82
2024/02/12 03:02:35;;;;;;;;;;;;;;;-144.99;100.00;67352.69;5053571;28;20015;-81
2024/02/12 03:05:01;;;;;;;;;;;;;;;-144.99;100.00;67352.69;5054436;28;19917;-81
2024/02/12 03:07:26;;;;;;;;;;;;;;;-144.99;100.00;67352.69;5054041;28;19913;-82
2024/02/12 03:09:51;;;;;;;;;;;;;;;-144.99;100.00;67352.69;5052308;28;19970;-81
2024/02/12 03:12:16;;;;;;;;;;;;;;;-144.99;100.00;67352.69;5054846;28;19920;-81
2024/02/12 03:14:41;;;;;;;;;;;;;;;-144.99;100.00;67352.69;5053799;28;19917;-81
2024/02/12 03:17:07;;;;;;;;;;;;;;;-144.99;100.00;67352.69;5053800;28;19935;-81
2024/02/12 03:19:32;;;;;;;;;;;;;;;-144.99;100.00;67352.69;5054676;28;19917;-82
2024/02/12 03:21:57;;;;;;;;;;;;;;;-144.99;100.00;67352.69;5054338;28;19916;-82
2024/02/12 03:24:23;;;;;;;;;;;;;;;-144.99;100.00;67352.69;5054172;28;19966;-81
2024/02/12 03:26:50;;;;;;;;;;;;;;;-144.99;100.00;67352.69;5053170;28;19917;-81
2024/02/12 03:29:15;;;;;;;;;;;;;;;-144.99;100.00;67352.69;5054501;28;19923;-81
2024/02/12 03:31:40;;;;;;;;;;;;;;;-144.99;100.00;67352.69;5052347;28;19984;-82
2024/02/12 03:34:06;;;;;;;;;;;;;;;-144.99;100.00;67352.69;5052829;28;20015;-82
2024/02/12 03:36:31;;;;;;;;;;;;;;;-144.99;100.00;67352.69;5053476;28;19938;-80
2024/02/12 03:38:58;;;;;;;;;;;;;;;-144.99;100.00;67352.69;5051691;28;20441;-81
2024/02/12 03:41:24;;;;;;;;;;;;;;;-144.99;100.00;67352.69;5048162;28;19924;-82
2024/02/12 03:43:52;;;;;;;;;;;;;;;-144.99;100.00;67352.69;5052738;28;19913;-82
2024/02/12 03:46:21;;;;;;;;;;;;;;;-144.99;100.00;67352.69;5053540;28;20015;-82
2024/02/12 03:59:51;;;;;;;;;;;;;;;-144.99;100.00;67352.69;5054537;28;19923;-80
2024/02/12 04:02:17;;;;;;;;;;;;;;;-144.99;100.00;67352.69;5054716;28;20765;-80
2024/02/12 04:04:42;;;;;;;;;;;;;;;-144.99;100.00;67352.69;5054445;28;20358;-80
2024/02/12 04:07:07;;;;;;;;;;;;;;;-144.99;100.00;67352.69;5053927;28;20524;-80
2024/02/12 04:09:33;;;;;;;;;;;;;;;-144.99;100.00;67352.69;5054869;28;20394;-80
2024/02/12 04:11:58;;;;;;;;;;;;;;;-144.99;100.00;67352.69;5053115;28;20276;-80
2024/02/12 04:14:23;;;;;;;;;;;;;;;-144.99;100.00;67352.69;5053177;28;19912;-80
2024/02/12 04:16:51;;;;;;;;;;;;;;;-144.99;100.00;67352.69;5053687;28;19971;-81
2024/02/12 04:19:18;;;;;;;;;;;;;;;-144.99;100.00;67352.69;5053484;28;19995;-80
2024/02/12 04:21:43;;;;;;;;;;;;;;;-144.99;100.00;67352.69;5054176;28;20041;-80
2024/02/12 04:24:09;;;;;;;;;;;;;;;-144.99;100.00;67352.69;5054368;28;20466;-80
2024/02/12 04:26:37;;;;;;;;;;;;;;;-144.99;100.00;67352.69;5053715;28;19920;-80
2024/02/12 04:29:05;;;;;;;;;;;;;;;-144.99;100.00;67352.69;5053184;28;19920;-80
2024/02/12 04:31:32;;;;;;;;;;;;;;;-144.99;100.00;67352.69;5052664;28;20386;-80
2024/02/12 04:33:57;;;;;;;;;;;;;;;-144.99;100.00;67352.69;5054181;28;19959;-80
2024/02/12 04:36:24;;;;;;;;;;;;;;;-144.99;100.00;67352.69;5052191;28;20398;-80
2024/02/12 04:38:49;;;;;;;;;;;;;;;-144.99;100.00;67352.69;5054278;28;19913;-80
2024/02/12 04:41:14;;;;;;;;;;;;;;;-144.99;100.00;67352.69;5052436;28;19919;-80
2024/02/12 04:43:41;;;;;;;;;;;;;;;-144.99;100.00;67352.69;5053264;28;19920;-80
2024/02/12 04:46:08;;;;;;;;;;;;;;;-144.99;100.00;67352.69;5051846;28;19959;-80
2024/02/12 04:48:33;;;;;;;;;;;;;;;-144.99;100.00;67352.69;5054025;28;20268;-80
2024/02/12 04:50:59;;;;;;;;;;;;;;;-144.99;100.00;67352.69;5052400;28;19965;-81
2024/02/12 04:53:25;;;;;;;;;;;;;;;-144.99;100.00;67352.69;5052766;28;19913;-80
2024/02/12 04:55:50;;;;;;;;;;;;;;;-144.99;100.00;67352.69;5051788;28;19936;-80
2024/02/12 04:58:15;;;;;;;;;;;;;;;-144.99;100.00;67352.69;5052337;28;20371;-80
2024/02/12 05:00:41;;;;;;;;;;;;;;;-144.99;100.00;67352.69;5053726;28;19917;-80
2024/02/12 05:03:07;;;;;;;;;;;;;;;-144.99;100.00;67352.69;5052359;28;20074;-80
2024/02/12 05:05:33;;;;;;;;;;;;;;;-144.99;100.00;67352.69;5051486;28;19924;-80
2024/02/12 05:08:02;;;;;;;;;;;;;;;-144.99;100.00;67352.69;5053724;28;19913;-79
2024/02/12 05:10:27;;;;;;;;;;;;;;;-144.99;100.00;67352.69;5050817;28;20452;-80
2024/02/12 05:12:52;;;;;;;;;;;;;;;-144.99;100.00;67352.69;5053262;28;19963;-81
2024/02/12 05:15:18;;;;;;;;;;;;;;;-144.99;100.00;67352.69;5053260;28;19919;-79
2024/02/12 05:17:54;;;;;;;;;;;;;;;-144.99;100.00;67352.69;5053206;28;19935;-80
2024/02/12 05:23:07;;;;;;;;;;;;;;;-144.99;100.00;67352.69;5053191;28;19940;-80
2024/02/12 05:25:33;;;;;;;;;;;;;;;-144.99;100.00;67352.69;5052306;28;20322;-80
2024/02/12 05:28:00;;;;;;;;;;;;;;;-144.99;100.00;67352.69;5052090;28;19913;-80
2024/02/12 05:30:25;;;;;;;;;;;;;;;-144.99;100.00;67352.69;5051696;28;19920;-81
2024/02/12 05:32:51;;;;;;;;;;;;;;;-144.99;100.00;67352.69;5051758;28;19917;-80
2024/02/12 05:35:16;;;;;;;;;;;;;;;-144.99;100.00;67352.69;5051883;28;19913;-80
2024/02/12 05:37:42;;;;;;;;;;;;;;;-144.99;100.00;67352.69;5050794;28;20010;-80
2024/02/12 05:40:07;;;;;;;;;;;;;;;-144.99;100.00;67352.69;5052742;28;19917;-80
2024/02/12 05:42:32;;;;;;;;;;;;;;;-144.99;100.00;67352.69;5051462;28;19927;-80
2024/02/12 05:44:58;;;;;;;;;;;;;;;-144.99;100.00;67352.69;5053062;28;20273;-81
2024/02/12 05:47:23;;;;;;;;;;;;;;;-144.99;100.00;67352.69;5052101;28;19917;-80
2024/02/12 05:49:49;;;;;;;;;;;;;;;-144.99;100.00;67352.69;5052698;28;19913;-80
2024/02/12 05:52:15;;;;;;;;;;;;;;;-144.99;100.00;67352.69;5051505;28;20003;-80
2024/02/12 05:54:41;;;;;;;;;;;;;;;-144.99;100.00;67352.69;5052453;28;20390;-80
2024/02/12 05:57:09;;;;;;;;;;;;;;;-144.99;100.00;67352.69;5051933;28;19913;-80
2024/02/12 05:59:34;;;;;;;;;;;;;;;-144.99;100.00;67352.69;5051468;28;19913;-81
2024/02/12 06:02:01;;;;;;;;;;;;;;;-144.99;100.00;67352.69;5051150;28;19924;-80
2024/02/12 06:04:27;;;;;;;;;;;;;;;-144.99;100.00;67352.69;5052596;28;19913;-79
2024/02/12 06:06:52;;;;;;;;;;;;;;;-144.99;100.00;67352.69;5050438;28;19916;-79
2024/02/12 06:09:17;;;;;;;;;;;;;;;-144.99;100.00;67352.69;5050870;28;19919;-80
2024/02/12 06:11:43;;;;;;;;;;;;;;;-144.99;100.00;67352.69;5050738;28;19924;-80
2024/02/12 06:14:08;;;;;;;;;;;;;;;-144.99;100.00;67352.69;5052121;28;20037;-80
2024/02/12 06:16:34;;;;;;;;;;;;;;;-144.99;100.00;67352.69;5050210;28;19919;-80
2024/02/12 06:19:01;;;;;;;;;;;;;;;-144.99;100.00;67352.69;5052416;28;20444;-79
2024/02/12 06:21:26;;;;;;;;;;;;;;;-144.99;100.00;67352.69;5051357;28;19917;-80
2024/02/12 06:23:52;;;;;;;;;;;;;;;-144.99;100.00;67352.69;5051955;28;19970;-79
2024/02/12 06:26:19;;;;;;;;;;;;;;;-144.99;100.00;67352.69;5051078;28;19961;-79
2024/02/12 06:28:44;;;;;;;;;;;;;;;-144.99;100.00;67352.69;5052000;28;20042;-80
2024/02/12 06:31:09;;;;;;;;;;;;;;;-144.99;100.00;67352.69;5051949;28;19946;-79
2024/02/12 06:33:35;;;;;;;;;;;;;;;-144.99;100.00;67352.69;5050586;28;19912;-79
2024/02/12 06:36:01;;;;;;;;;;;;;;;-144.99;100.00;67352.69;5050015;28;19999;-81
2024/02/12 06:38:28;;;;;;;;;;;;;;;-144.99;100.00;67352.69;5050637;28;19913;-80
2024/02/12 06:40:53;;;;;;;;;;;;;;;-144.99;100.00;67352.69;5051782;28;19924;-81
2024/02/12 06:43:18;;;;;;;;;;;;;;;-144.99;100.00;67352.69;5050467;28;19917;-82
2024/02/12 06:45:43;;;;;;;;;;;;;;;-144.99;100.00;67352.69;5049700;28;19919;-82
2024/02/12 06:48:09;;;;;;;;;;;;;;;-144.99;100.00;67352.69;5051885;28;20383;-83
2024/02/12 06:50:34;;;;;;;;;;;;;;;-144.99;100.00;67352.69;5051550;28;19912;-80
2024/02/12 06:52:59;;;;;;;;;;;;;;;-144.99;100.00;67352.69;5051556;28;20036;-81
2024/02/12 06:55:24;;;;;;;;;;;;;;;-144.99;100.00;67352.69;5050972;28;19971;-80
2024/02/12 06:57:49;;;;;;;;;;;;;;;-144.99;100.00;67352.69;5051784;28;19920;-80
2024/02/12 07:00:19;;;;;;;;;;;;;;;-144.99;100.00;67352.69;5051442;28;20299;-80
2024/02/12 07:02:46;;;;;;;;;;;;;;;-144.99;100.00;67352.69;5050258;28;19917;-80
2024/02/12 07:05:12;;;;;;;;;;;;;;;-144.99;100.00;67352.69;5051671;28;20351;-80
2024/02/12 07:07:38;;;;;;;;;;;;;;;-144.99;100.00;67352.69;5049585;28;19970;-82
2024/02/12 07:10:04;;;;;;;;;;;;;;;-144.99;100.00;67352.69;5051663;28;19928;-81
2024/02/12 07:12:30;;;;;;;;;;;;;;;-144.99;100.00;67352.69;5051238;28;19925;-81
2024/02/12 07:14:55;;;;;;;;;;;;;;;-144.99;100.00;67352.69;5049786;28;20276;-81
2024/02/12 07:17:21;;;;;;;;;;;;;;;-144.99;100.00;67352.69;5049529;28;19944;-83
2024/02/12 07:19:47;;;;;;;;;;;;;;;-144.99;100.00;67352.69;5050622;28;20384;-82
2024/02/12 07:22:12;;;;;;;;;;;;;;;-144.99;100.00;67352.69;5050977;28;20371;-83
2024/02/12 07:24:37;;;;;;;;;;;;;;;-144.99;100.00;67352.69;5050588;28;19916;-80
2024/02/12 07:27:02;;;;;;;;;;;;;;;-144.99;100.00;67352.69;5051044;28;20011;-82
2024/02/12 07:29:28;;;;;;;;;;;;;;;-144.99;100.00;67352.69;5050234;28;19916;-79
2024/02/12 07:31:53;;;;;;;;;;;;;;;-144.99;100.00;67352.69;5047460;28;19951;-82
2024/02/12 07:34:18;;;;;;;;;;;;;;;-144.99;100.00;67352.69;5049782;28;19917;-81
2024/02/12 07:36:44;;;;;;;;;;;;;;;-144.99;100.00;67352.69;5053911;28;20447;-80
2024/02/12 07:39:09;;;;;;;;;;;;;;;-144.99;100.00;67352.69;5050749;28;19913;-80
2024/02/12 07:41:36;;;;;;;;;;;;;;;-144.99;100.00;67352.69;5053344;28;19924;-80
2024/02/12 07:44:01;;;;;;;;;;;;;;;-144.99;100.00;67352.69;5053919;28;19919;-80
2024/02/12 07:46:28;;;;;;;;;;;;;;;-144.99;100.00;67352.69;5054258;28;19913;-80
2024/02/12 07:48:53;;;;;;;;;;;;;;;-144.99;100.00;67352.69;5053492;28;19913;-79
2024/02/12 07:51:20;;;;;;;;;;;;;;;-144.99;100.00;67352.69;5053290;28;19924;-80
2024/02/12 07:53:46;;;;;;;;;;;;;;;-144.99;100.00;67352.69;5053655;28;19920;-79
2024/02/12 07:56:12;;;;;;;;;;;;;;;-144.99;100.00;67352.69;5052785;28;19952;-79
2024/02/12 07:58:37;;;;;;;;;;;;;;;-144.99;100.00;67352.69;5053741;28;19913;-80
2024/02/12 08:01:02;;;;;;;;;;;;;;;-144.99;100.00;67352.69;5053327;28;20311;-80
2024/02/12 08:03:27;;;;;;;;;;;;;;;-144.99;100.00;67352.69;5053345;28;19917;-80
2024/02/12 08:05:52;;;;;;;;;;;;;;;-144.99;100.00;67352.69;5053885;28;20423;-80
2024/02/12 08:08:18;;;;;;;;;;;;;;;-144.99;100.00;67352.69;5045603;28;19972;-80
2024/02/12 08:10:43;;;;;;;;;;;;;;;-144.99;100.00;67352.69;5049059;28;20288;-80
2024/02/12 08:13:09;;;;;;;;;;;;;;;-144.99;100.00;67352.69;5054141;28;19919;-80
2024/02/12 08:15:34;;;;;;;;;;;;;;;-144.99;100.00;67352.69;5050257;28;20011;-80
2024/02/12 08:18:00;;;;;;;;;;;;;;;-144.99;100.00;67352.69;5051220;28;19923;-80
2024/02/12 08:20:26;;;;;;;;;;;;;;;-144.99;100.00;67352.69;5054011;28;20395;-79
2024/02/12 08:22:51;;;;;;;;;;;;;;;-144.99;100.00;67352.69;5053663;28;19973;-80
2024/02/12 08:25:17;;;;;;;;;;;;;;;-144.99;100.00;67352.69;5054045;28;19995;-78
2024/02/12 08:27:42;;;;;;;;;;;;;;;-144.99;100.00;67352.69;5051938;28;19917;-80
2024/02/12 08:30:09;;;;;;;;;;;;;;;-144.99;100.00;67352.69;5052313;28;19917;-79
2024/02/12 08:32:34;;;;;;;;;;;;;;;-144.99;100.00;67352.69;5053643;28;20490;-79
2024/02/12 08:34:59;;;;;;;;;;;;;;;-144.99;100.00;67352.69;5053850;28;20012;-80
2024/02/12 08:37:25;;;;;;;;;;;;;;;-144.99;100.00;67352.69;5052096;28;19913;-79
2024/02/12 08:39:50;;;;;;;;;;;;;;;-144.99;100.00;67352.69;5053864;28;19935;-80
2024/02/12 08:42:15;;;;;;;;;;;;;;;-144.99;100.00;67352.69;5053902;28;19921;-79
2024/02/12 08:44:42;;;;;;;;;;;;;;;-144.99;100.00;67352.69;5052491;28;19912;-79
2024/02/12 08:47:08;;;;;;;;;;;;;;;-144.99;100.00;67352.69;5052998;28;20389;-80
2024/02/12 08:49:33;;;;;;;;;;;;;;;-144.99;100.00;67352.69;5052637;28;19952;-79
2024/02/12 08:51:58;;;;;;;;;;;;;;;-144.99;100.00;67352.69;5053595;28;19912;-79
2024/02/12 08:54:24;;;;;;;;;;;;;;;-144.99;100.00;67352.69;5052580;28;19995;-80
2024/02/12 08:56:49;;;;;;;;;;;;;;;-144.99;100.00;67352.69;5051664;28;20276;-82
2024/02/12 08:59:15;;;;;;;;;;;;;;;-144.99;100.00;67352.69;5052681;28;19913;-81
2024/02/12 09:01:40;;;;;;;;;;;;;;;-144.99;100.00;67352.69;5053321;28;20305;-82
2024/02/12 09:04:06;;;;;;;;;;;;;;;-144.99;100.00;67352.69;5053007;28;20000;-80
2024/02/12 09:06:32;;;;;;;;;;;;;;;-144.99;100.00;67352.69;5053271;28;19916;-80
2024/02/12 09:08:58;;;;;;;;;;;;;;;-144.99;100.00;67352.69;5045024;28;19959;-79
2024/02/12 09:11:23;;;;;;;;;;;;;;;-144.99;100.00;67352.69;5052276;28;19945;-79
2024/02/12 09:13:48;;;;;;;;;;;;;;;-144.99;100.00;67352.69;5051690;28;19913;-79
2024/02/12 09:16:14;;;;;;;;;;;;;;;-144.99;100.00;67352.69;5047920;28;20054;-80
2024/02/12 09:18:39;;;;;;;;;;;;;;;-144.99;100.00;67352.69;5044083;28;19939;-80
2024/02/12 09:21:04;;;;;;;;;;;;;;;-144.99;100.00;67352.69;5042917;28;19913;-81
2024/02/12 09:23:30;;;;;;;;;;;;;;;-144.99;100.00;67352.69;5052995;28;19921;-80
2024/02/12 09:25:56;;;;;;;;;;;;;;;-144.99;100.00;67352.69;5052557;28;19924;-81
2024/02/12 09:28:22;;;;;;;;;;;;;;;-144.99;100.00;67352.69;5053132;28;19917;-80
2024/02/12 09:30:47;;;;;;;;;;;;;;;-144.99;100.00;67352.69;5052958;28;19917;-80
2024/02/12 09:33:14;;;;;;;;;;;;;;;-144.99;100.00;67352.69;5053401;28;19913;-80
2024/02/12 09:35:39;;;;;;;;;;;;;;;-144.99;100.00;67352.69;5049656;28;20087;-81
2024/02/12 09:38:04;;;;;;;;;;;;;;;-144.99;100.00;67352.69;5053041;28;19913;-80
2024/02/12 09:40:33;;;;;;;;;;;;;;;-144.99;100.00;67352.69;5045637;28;19919;-81
2024/02/12 09:42:59;;;;;;;;;;;;;;;-144.99;100.00;67352.69;5037974;28;20363;-82
2024/02/12 09:45:26;;;;;;;;;;;;;;;-144.99;100.00;67352.69;5051428;28;19913;-81
2024/02/12 09:47:52;;;;;;;;;;;;;;;-144.99;100.00;67352.69;5054375;28;19920;-81
2024/02/12 09:50:18;;;;;;;;;;;;;;;-144.99;100.00;67352.69;5055139;28;19912;-84
2024/02/12 09:52:44;;;;;;;;;;;;;;;-144.99;100.00;67352.69;5053522;28;20414;-83
2024/02/12 09:55:11;;;;;;;;;;;;;;;-144.99;100.00;67352.69;5052698;28;19994;-85
2024/02/12 09:57:37;;;;;;;;;;;;;;;-144.99;100.00;67352.69;5051028;28;19912;-83
2024/02/12 10:00:07;;;;;;;;;;;;;;;-144.99;100.00;67352.69;5051755;28;20210;-83
2024/02/12 10:02:35;;;;;;;;;;;;;;;-144.99;100.00;67352.69;5052257;28;19995;-83
2024/02/12 10:05:02;;;;;;;;;;;;;;;-144.99;100.00;67352.69;5051450;28;19920;-84
2024/02/12 10:07:35;;;;;;;;;;;;;;;-144.99;100.00;67352.69;5051805;28;19923;-83
2024/02/12 10:10:00;;;;;;;;;;;;;;;-144.99;100.00;67352.69;5052782;28;20146;-83
2024/02/12 10:12:25;;;;;;;;;;;;;;;-144.99;100.00;67352.69;5051191;28;19912;-83
2024/02/12 10:14:52;;;;;;;;;;;;;;;-144.99;100.00;67352.69;5052625;28;19920;-82
2024/02/12 10:17:18;;;;;;;;;;;;;;;-144.99;100.00;67352.69;5047901;28;19913;-83
2024/02/12 10:19:43;;;;;;;;;;;;;;;-144.99;100.00;67352.69;5050826;28;19917;-83
2024/02/12 10:22:11;;;;;;;;;;;;;;;-144.99;100.00;67352.69;5051931;28;19951;-83
2024/02/12 10:24:38;;;;;;;;;;;;;;;-144.99;100.00;67352.69;5050943;28;19912;-83
2024/02/12 10:27:03;;;;;;;;;;;;;;;-144.99;100.00;67352.69;5051453;28;19913;-83
2024/02/12 10:29:29;;;;;;;;;;;;;;;-144.99;100.00;67352.69;5052001;28;19923;-83
2024/02/12 10:31:54;;;;;;;;;;;;;;;-144.99;100.00;67352.69;5050499;28;20027;-82
2024/02/12 10:34:23;;;;;;;;;;;;;;;-144.99;100.00;67352.69;5052035;28;19913;-82
2024/02/12 10:36:53;;;;;;;;;;;;;;;-144.99;100.00;67352.69;5049464;28;20011;-83
2024/02/12 10:39:19;;;;;;;;;;;;;;;-144.99;100.00;67352.69;5052381;28;19917;-82
2024/02/12 10:41:47;;;;;;;;;;;;;;;-144.99;100.00;67352.69;5050486;28;19932;-83
2024/02/12 10:44:17;;;;;;;;;;;;;;;-144.99;100.00;67352.69;5050867;28;19940;-83
2024/02/12 10:46:42;;;;;;;;;;;;;;;-144.99;100.00;67352.69;5051179;28;19967;-82
2024/02/12 10:49:08;;;;;;;;;;;;;;;-144.99;100.00;67352.69;5051110;28;19917;-83
2024/02/12 10:51:35;;;;;;;;;;;;;;;-144.99;100.00;67352.69;5050967;28;20236;-83
2024/02/12 10:54:01;;;;;;;;;;;;;;;-144.99;100.00;67352.69;5052116;28;19912;-84
2024/02/12 10:56:26;;;;;;;;;;;;;;;-144.99;100.00;67352.69;5046681;28;19924;-83
2024/02/12 10:58:52;;;;;;;;;;;;;;;-144.99;100.00;67352.69;5051905;28;20426;-84
2024/02/12 11:01:17;;;;;;;;;;;;;;;-144.99;100.00;67352.69;5053157;28;20402;-83
2024/02/12 11:03:47;;;;;;;;;;;;;;;-144.99;100.00;67352.69;5053230;28;19978;-84
2024/02/12 11:06:15;;;;;;;;;;;;;;;-144.99;100.00;67352.69;5051119;28;20017;-84
2024/02/12 11:08:40;;;;;;;;;;;;;;;-144.99;100.00;67352.69;5055833;28;19917;-84
2024/02/12 11:11:18;;;;;;;;;;;;;;;-144.99;100.00;67352.69;5056342;28;19920;-83
2024/02/12 11:13:43;;;;;;;;;;;;;;;-144.99;100.00;67352.69;5057874;28;19921;-82
2024/02/12 11:16:16;;;;;;;;;;;;;;;-144.99;100.00;67352.69;5055626;28;19923;-84
2024/02/12 11:18:41;;;;;;;;;;;;;;;-144.99;100.00;67352.69;5056802;28;19944;-83
2024/02/12 11:21:08;;;;;;;;;;;;;;;-144.99;100.00;67352.69;5056928;28;19940;-83
2024/02/12 11:23:34;;;;;;;;;;;;;;;-144.99;100.00;67352.69;5056140;28;19927;-83
2024/02/12 11:25:59;;;;;;;;;;;;;;;-144.99;100.00;67352.69;5044430;28;19912;-84
2024/02/12 11:28:29;;;;;;;;;;;;;;;-144.99;100.00;67352.69;5055940;28;19947;-83
2024/02/12 11:30:54;;;;;;;;;;;;;;;-144.99;100.00;67352.69;5057054;28;19959;-84
2024/02/12 11:33:20;;;;;;;;;;;;;;;-144.99;100.00;67352.69;5056016;28;19913;-84
2024/02/12 11:35:45;;;;;;;;;;;;;;;-144.99;100.00;67352.69;5055811;28;20383;-84
2024/02/12 11:38:13;;;;;;;;;;;;;;;-144.99;100.00;67352.69;5056227;28;19991;-84
2024/02/12 11:40:39;;;;;;;;;;;;;;;-144.99;100.00;67352.69;5053732;28;20383;-84
2024/02/12 11:43:05;;;;;;;;;;;;;;;-144.99;100.00;67352.69;5050070;28;19924;-83
2024/02/12 11:45:30;;;;;;;;;;;;;;;-144.99;100.00;67352.69;5055290;28;19913;-84
2024/02/12 11:48:03;;;;;;;;;;;;;;;-144.99;100.00;67352.69;5057827;28;19927;-84
2024/02/12 11:50:28;;;;;;;;;;;;;;;-144.99;100.00;67352.69;5056479;28;19917;-83
2024/02/12 11:52:55;;;;;;;;;;;;;;;-144.99;100.00;67352.69;5052659;28;19986;-84
2024/02/12 11:55:27;;;;;;;;;;;;;;;-144.99;100.00;67352.69;5050488;28;19913;-81
2024/02/12 11:57:52;;;;;;;;;;;;;;;-144.99;100.00;67352.69;5053540;28;19940;-83
2024/02/12 12:00:18;;;;;;;;;;;;;;;-144.99;100.00;67352.69;5049003;28;19966;-84
2024/02/12 12:02:47;;;;;;;;;;;;;;;-144.99;100.00;67352.69;5056622;28;19916;-84
2024/02/12 12:05:14;;;;;;;;;;;;;;;-144.99;100.00;67352.69;5055454;28;19916;-84
2024/02/12 12:07:40;;;;;;;;;;;;;;;-144.99;100.00;67352.69;5056309;28;19959;-83
2024/02/12 12:10:05;;;;;;;;;;;;;;;-144.99;100.00;67352.69;5057059;28;19912;-83
2024/02/12 12:12:33;;;;;;;;;;;;;;;-144.99;100.00;67352.69;5054772;28;19912;-84
2024/02/12 12:15:04;;;;;;;;;;;;;;;-144.99;100.00;67352.69;5047789;28;20170;-84
2024/02/12 12:17:30;;;;;;;;;;;;;;;-144.99;100.00;67352.69;5053733;28;19920;-82
2024/02/12 12:19:57;;;;;;;;;;;;;;;-144.99;100.00;67352.69;5055064;28;19913;-83
2024/02/12 12:22:22;;;;;;;;;;;;;;;-144.99;100.00;67352.69;5050629;28;19917;-84
2024/02/12 12:24:47;;;;;;;;;;;;;;;-144.99;100.00;67352.69;5054627;28;20003;-82
2024/02/12 12:27:26;;;;;;;;;;;;;;;-144.99;100.00;67352.69;5055232;28;20291;-83